Terminal Aerodrome Forecast
Issued by NWS

Home | Current Version | Previous Version | Text Only | Print | Product List | Glossary On
Versions: 1 2 3 4 5 6 7 8 9 10 11 12 13 14 15 16 17 18 19 20 21 22 23 24
631
FTUS41 KPBZ 141727
TAFDUJ
TAF
KDUJ 141727Z 1418/1518 VRB04KT P6SM BKN025
     FM142100 14005KT P6SM SCT025
     FM150500 13006KT P6SM BKN080
     FM151000 15010KT 6SM -SN OVC020
     FM151700 16011KT P6SM OVC015=

USA.gov is the U.S. government's official web portal to all federal, state and local government web resources and services.